Time;durP1;ratioP1;P1;durP2;ratioP2;P2;SDS_P1;SDS_P2;PMS_P1;PMS_P2;Temp;Humidity;BMP_temperature;BMP_pressure;BME280_temperature;BME280_humidity;BME280_pressure;Samples;Min_cycle;Max_cycle;Signal;HPM_P1;HPM_P2
2022/09/12 00:01:35;;;;;;;;;;;;;;;;;;5118465;27;19963;-85
2022/09/12 00:04:01;;;;;;;;;;;;;;;;;;5135921;27;19988;-85
2022/09/12 00:06:28;;;;;;;;;;;;;;;;;;5118165;27;19920;-85
2022/09/12 00:08:54;;;;;;;;;;;;;;;;;;5135888;27;19916;-86
2022/09/12 00:11:20;;;;;;;;;;;;;;;;;;5135884;27;19923;-86
2022/09/12 00:13:45;;;;;;;;;;;;;;;;;;5116648;27;19930;-85
2022/09/12 00:16:18;;;;;;;;;;;;;;;;;;5135124;27;19953;-86
2022/09/12 00:18:45;;;;;;;;;;;;;;;;;;5096869;28;19916;-85
2022/09/12 00:21:11;;;;;;;;;;;;;;;;;;5156240;27;19972;-85
2022/09/12 00:23:36;;;;;;;;;;;;;;;;;;5156531;27;19977;-87
2022/09/12 00:26:03;;;;;;;;;;;;;;;;;;5137624;27;20727;-86
2022/09/12 00:28:29;;;;;;;;;;;;;;;;;;5125984;27;19976;-86
2022/09/12 00:30:54;;;;;;;;;;;;;;;;;;5134299;27;20368;-87
2022/09/12 00:33:19;;;;;;;;;;;;;;;;;;5107497;27;19915;-86
2022/09/12 00:35:46;;;;;;;;;;;;;;;;;;5119831;27;19923;-85
2022/09/12 00:38:12;;;;;;;;;;;;;;;;;;5132167;27;20020;-85
2022/09/12 00:40:38;;;;;;;;;;;;;;;;;;5156066;27;19915;-85
2022/09/12 00:43:03;;;;;;;;;;;;;;;;;;5156343;27;19921;-85
2022/09/12 00:45:29;;;;;;;;;;;;;;;;;;5137026;27;19927;-86
2022/09/12 00:47:57;;;;;;;;;;;;;;;;;;5143429;27;19923;-86
2022/09/12 00:50:23;;;;;;;;;;;;;;;;;;5114519;28;20382;-84
2022/09/12 00:52:51;;;;;;;;;;;;;;;;;;5096284;28;19998;-86
2022/09/12 00:55:25;;;;;;;;;;;;;;;;;;5114520;28;19924;-85
2022/09/12 00:57:53;;;;;;;;;;;;;;;;;;5123265;27;19933;-86
2022/09/12 01:00:20;;;;;;;;;;;;;;;;;;5134932;27;19916;-85
2022/09/12 01:02:49;;;;;;;;;;;;;;;;;;5116393;27;20401;-86
2022/09/12 01:05:14;;;;;;;;;;;;;;;;;;5133994;27;19919;-86
2022/09/12 01:07:40;;;;;;;;;;;;;;;;;;5134886;27;19927;-85
2022/09/12 01:10:06;;;;;;;;;;;;;;;;;;5148398;27;20085;-87
2022/09/12 01:12:33;;;;;;;;;;;;;;;;;;5138258;27;19919;-86
2022/09/12 01:14:58;;;;;;;;;;;;;;;;;;5126129;27;19915;-86
2022/09/12 01:17:30;;;;;;;;;;;;;;;;;;5155362;27;19922;-86
2022/09/12 01:20:02;;;;;;;;;;;;;;;;;;5153029;27;19971;-85
2022/09/12 01:22:39;;;;;;;;;;;;;;;;;;5142211;27;20031;-86
2022/09/12 01:25:23;;;;;;;;;;;;;;;;;;5134380;27;19926;-86
2022/09/12 01:28:07;;;;;;;;;;;;;;;;;;5115925;27;19915;-86
2022/09/12 01:30:59;;;;;;;;;;;;;;;;;;5145350;27;20001;-87
2022/09/12 01:33:35;;;;;;;;;;;;;;;;;;5115714;27;20366;-86
2022/09/12 01:36:07;;;;;;;;;;;;;;;;;;5155175;27;19919;-85
2022/09/12 01:38:36;;;;;;;;;;;;;;;;;;5120700;27;19922;-86
2022/09/12 01:41:25;;;;;;;;;;;;;;;;;;5138531;27;19920;-85
2022/09/12 01:43:57;;;;;;;;;;;;;;;;;;5154325;27;20007;-86
2022/09/12 01:46:40;;;;;;;;;;;;;;;;;;5133683;27;19927;-86
2022/09/12 01:49:18;;;;;;;;;;;;;;;;;;5140899;27;19924;-86
2022/09/12 01:51:52;;;;;;;;;;;;;;;;;;5147091;27;19915;-86
2022/09/12 01:54:25;;;;;;;;;;;;;;;;;;5138503;27;19919;-87
2022/09/12 01:56:51;;;;;;;;;;;;;;;;;;5139097;27;19933;-85
2022/09/12 01:59:20;;;;;;;;;;;;;;;;;;5115542;28;20370;-85
2022/09/12 02:01:53;;;;;;;;;;;;;;;;;;5141889;27;19955;-86
2022/09/12 02:04:24;;;;;;;;;;;;;;;;;;5140173;27;19927;-85
2022/09/12 02:07:05;;;;;;;;;;;;;;;;;;5134014;28;19919;-86
2022/09/12 02:09:30;;;;;;;;;;;;;;;;;;5143112;27;19974;-85
2022/09/12 02:11:57;;;;;;;;;;;;;;;;;;5116427;27;19950;-85
2022/09/12 02:14:26;;;;;;;;;;;;;;;;;;5154851;27;19967;-86
2022/09/12 02:17:06;;;;;;;;;;;;;;;;;;5136052;27;20267;-86
2022/09/12 02:19:38;;;;;;;;;;;;;;;;;;5154665;27;19966;-85
2022/09/12 02:22:03;;;;;;;;;;;;;;;;;;5156070;27;19915;-85
2022/09/12 02:24:32;;;;;;;;;;;;;;;;;;5124063;27;20385;-86
2022/09/12 02:27:03;;;;;;;;;;;;;;;;;;5136924;27;19916;-86
2022/09/12 02:29:29;;;;;;;;;;;;;;;;;;5137817;27;19922;-86
2022/09/12 02:31:59;;;;;;;;;;;;;;;;;;5137933;27;19915;-85
2022/09/12 02:34:40;;;;;;;;;;;;;;;;;;5137709;27;20431;-86
2022/09/12 02:37:25;;;;;;;;;;;;;;;;;;5137786;27;19919;-85
2022/09/12 02:39:54;;;;;;;;;;;;;;;;;;5137619;27;19919;-86
2022/09/12 02:42:20;;;;;;;;;;;;;;;;;;5142705;27;19915;-86
2022/09/12 02:44:45;;;;;;;;;;;;;;;;;;5129405;27;19923;-85
2022/09/12 02:47:16;;;;;;;;;;;;;;;;;;5116991;28;20455;-85
2022/09/12 02:49:41;;;;;;;;;;;;;;;;;;5117241;28;19922;-86
2022/09/12 02:52:07;;;;;;;;;;;;;;;;;;5116948;28;19919;-86
2022/09/12 02:54:32;;;;;;;;;;;;;;;;;;5098505;28;19981;-85
2022/09/12 02:56:58;;;;;;;;;;;;;;;;;;5116818;28;19920;-86
2022/09/12 02:59:23;;;;;;;;;;;;;;;;;;5101930;27;19926;-85
2022/09/12 03:01:52;;;;;;;;;;;;;;;;;;5137240;27;20010;-85
2022/09/12 03:04:36;;;;;;;;;;;;;;;;;;5137199;27;19919;-85
2022/09/12 03:07:19;;;;;;;;;;;;;;;;;;5140155;27;19923;-85
2022/09/12 03:09:45;;;;;;;;;;;;;;;;;;5139232;27;19915;-85
2022/09/12 03:12:17;;;;;;;;;;;;;;;;;;5139158;27;20273;-85
2022/09/12 03:14:48;;;;;;;;;;;;;;;;;;5131863;27;19923;-86
2022/09/12 03:17:28;;;;;;;;;;;;;;;;;;5116497;28;19923;-86
2022/09/12 03:20:08;;;;;;;;;;;;;;;;;;5116561;28;19919;-85
2022/09/12 03:22:42;;;;;;;;;;;;;;;;;;5118325;27;19923;-86
2022/09/12 03:25:13;;;;;;;;;;;;;;;;;;5137114;27;19926;-85
2022/09/12 03:27:45;;;;;;;;;;;;;;;;;;5136671;27;19920;-85
2022/09/12 03:30:11;;;;;;;;;;;;;;;;;;5118588;27;19923;-86
2022/09/12 03:32:40;;;;;;;;;;;;;;;;;;5125438;27;20332;-86
2022/09/12 03:35:06;;;;;;;;;;;;;;;;;;5122536;27;19919;-85
2022/09/12 03:37:31;;;;;;;;;;;;;;;;;;5157394;27;19915;-85
2022/09/12 03:39:57;;;;;;;;;;;;;;;;;;5119842;27;19926;-85
2022/09/12 03:42:22;;;;;;;;;;;;;;;;;;5152197;27;19917;-85
2022/09/12 03:44:48;;;;;;;;;;;;;;;;;;5156869;27;19971;-85
2022/09/12 03:47:13;;;;;;;;;;;;;;;;;;5123329;27;20010;-86
2022/09/12 03:49:38;;;;;;;;;;;;;;;;;;5116343;27;20014;-86
2022/09/12 03:52:04;;;;;;;;;;;;;;;;;;5138260;27;20002;-85
2022/09/12 03:54:29;;;;;;;;;;;;;;;;;;5135808;27;19919;-85
2022/09/12 03:56:55;;;;;;;;;;;;;;;;;;5135077;27;19991;-86
2022/09/12 03:59:20;;;;;;;;;;;;;;;;;;5135469;27;19926;-86
2022/09/12 04:01:46;;;;;;;;;;;;;;;;;;5117124;27;19929;-87
2022/09/12 04:04:11;;;;;;;;;;;;;;;;;;5137950;27;19920;-85
2022/09/12 04:06:36;;;;;;;;;;;;;;;;;;5133432;27;20251;-86
2022/09/12 04:09:02;;;;;;;;;;;;;;;;;;5135336;27;19931;-86
2022/09/12 04:11:27;;;;;;;;;;;;;;;;;;5135858;27;20007;-85
2022/09/12 04:13:53;;;;;;;;;;;;;;;;;;5135990;27;19968;-85
2022/09/12 04:16:20;;;;;;;;;;;;;;;;;;5135672;27;19919;-85
2022/09/12 04:18:45;;;;;;;;;;;;;;;;;;5135825;27;19916;-86
2022/09/12 04:21:16;;;;;;;;;;;;;;;;;;5136337;27;19937;-85
2022/09/12 04:23:41;;;;;;;;;;;;;;;;;;5133945;27;19919;-85
2022/09/12 04:26:07;;;;;;;;;;;;;;;;;;5136179;27;19916;-85
2022/09/12 04:28:33;;;;;;;;;;;;;;;;;;5136358;27;19960;-85
2022/09/12 04:31:06;;;;;;;;;;;;;;;;;;5135904;27;19918;-86
2022/09/12 04:33:33;;;;;;;;;;;;;;;;;;5135187;27;19916;-84
2022/09/12 04:36:06;;;;;;;;;;;;;;;;;;5125045;27;19915;-85
2022/09/12 04:38:32;;;;;;;;;;;;;;;;;;5115257;28;20259;-87
2022/09/12 04:40:57;;;;;;;;;;;;;;;;;;5114184;27;19919;-87
2022/09/12 04:43:23;;;;;;;;;;;;;;;;;;5117318;27;19992;-86
2022/09/12 04:45:48;;;;;;;;;;;;;;;;;;5134315;27;20286;-86
2022/09/12 04:48:14;;;;;;;;;;;;;;;;;;5116860;27;19968;-86
2022/09/12 04:50:39;;;;;;;;;;;;;;;;;;5143366;27;19923;-86
2022/09/12 04:53:04;;;;;;;;;;;;;;;;;;5140491;27;19924;-86
2022/09/12 04:55:32;;;;;;;;;;;;;;;;;;5116971;27;20374;-88
2022/09/12 04:57:58;;;;;;;;;;;;;;;;;;5114683;28;19922;-88
2022/09/12 05:00:23;;;;;;;;;;;;;;;;;;5136510;27;19919;-85
2022/09/12 05:02:49;;;;;;;;;;;;;;;;;;5125975;27;19919;-86
2022/09/12 05:05:14;;;;;;;;;;;;;;;;;;5138153;27;20010;-85
2022/09/12 05:07:40;;;;;;;;;;;;;;;;;;5135165;27;19923;-84
2022/09/12 05:10:06;;;;;;;;;;;;;;;;;;5139840;27;19923;-87
2022/09/12 05:12:31;;;;;;;;;;;;;;;;;;5136138;27;19926;-85
2022/09/12 05:14:57;;;;;;;;;;;;;;;;;;5143884;27;19919;-86
2022/09/12 05:17:22;;;;;;;;;;;;;;;;;;5139932;27;19925;-85
2022/09/12 05:19:48;;;;;;;;;;;;;;;;;;5116622;27;20362;-85
2022/09/12 05:22:13;;;;;;;;;;;;;;;;;;5116186;27;19916;-85
2022/09/12 05:24:42;;;;;;;;;;;;;;;;;;5141725;27;19915;-85
2022/09/12 05:27:07;;;;;;;;;;;;;;;;;;5136484;27;19919;-86
2022/09/12 05:29:33;;;;;;;;;;;;;;;;;;5111937;27;19919;-86
2022/09/12 05:31:58;;;;;;;;;;;;;;;;;;5144431;27;20021;-86
2022/09/12 05:34:24;;;;;;;;;;;;;;;;;;5152055;27;20013;-86
2022/09/12 05:36:49;;;;;;;;;;;;;;;;;;5140331;27;20014;-85
2022/09/12 05:39:15;;;;;;;;;;;;;;;;;;5115762;27;19922;-85
2022/09/12 05:41:41;;;;;;;;;;;;;;;;;;5134331;27;19971;-85
2022/09/12 05:44:09;;;;;;;;;;;;;;;;;;5115127;27;19919;-85
2022/09/12 05:46:36;;;;;;;;;;;;;;;;;;5136693;27;19915;-85
2022/09/12 05:49:03;;;;;;;;;;;;;;;;;;5154988;27;19922;-85
2022/09/12 05:51:30;;;;;;;;;;;;;;;;;;5154939;27;19915;-86
2022/09/12 05:53:57;;;;;;;;;;;;;;;;;;5154904;27;19919;-86
2022/09/12 05:56:24;;;;;;;;;;;;;;;;;;5145488;27;19958;-86
2022/09/12 05:58:54;;;;;;;;;;;;;;;;;;5133104;28;23257;-87
2022/09/12 06:01:19;;;;;;;;;;;;;;;;;;5132254;28;20021;-86
2022/09/12 06:03:47;;;;;;;;;;;;;;;;;;5134138;28;20467;-86
2022/09/12 06:06:13;;;;;;;;;;;;;;;;;;5134031;28;19915;-86
2022/09/12 06:08:40;;;;;;;;;;;;;;;;;;5134040;28;19923;-87
2022/09/12 06:11:05;;;;;;;;;;;;;;;;;;5115545;28;20343;-86
2022/09/12 06:13:32;;;;;;;;;;;;;;;;;;5115572;28;19915;-87
2022/09/12 06:16:05;;;;;;;;;;;;;;;;;;5132935;28;20012;-85
2022/09/12 06:18:31;;;;;;;;;;;;;;;;;;5133901;28;19951;-86
2022/09/12 06:20:56;;;;;;;;;;;;;;;;;;5133871;28;19915;-86
2022/09/12 06:23:21;;;;;;;;;;;;;;;;;;5115410;28;20006;-87
2022/09/12 06:25:50;;;;;;;;;;;;;;;;;;5115457;28;19959;-87
2022/09/12 06:28:16;;;;;;;;;;;;;;;;;;5115167;28;19968;-87
2022/09/12 06:30:42;;;;;;;;;;;;;;;;;;5115430;28;19919;-87
2022/09/12 06:33:07;;;;;;;;;;;;;;;;;;5114102;28;19920;-87
2022/09/12 06:35:37;;;;;;;;;;;;;;;;;;5133813;28;19924;-87
2022/09/12 06:38:02;;;;;;;;;;;;;;;;;;5115394;28;19919;-88
2022/09/12 06:40:28;;;;;;;;;;;;;;;;;;5133625;28;19915;-87
2022/09/12 06:42:54;;;;;;;;;;;;;;;;;;5143575;27;19915;-86
2022/09/12 06:45:19;;;;;;;;;;;;;;;;;;5135669;27;19919;-86
2022/09/12 06:47:45;;;;;;;;;;;;;;;;;;5154403;27;19922;-86
2022/09/12 06:50:10;;;;;;;;;;;;;;;;;;5136053;27;20339;-87
2022/09/12 06:52:36;;;;;;;;;;;;;;;;;;5130341;28;19923;-86
2022/09/12 06:55:01;;;;;;;;;;;;;;;;;;5101671;28;19916;-86
2022/09/12 06:57:29;;;;;;;;;;;;;;;;;;5119986;28;20247;-87
2022/09/12 06:59:54;;;;;;;;;;;;;;;;;;5126611;27;19926;-87
2022/09/12 07:02:20;;;;;;;;;;;;;;;;;;5120172;28;19923;-87
2022/09/12 07:04:46;;;;;;;;;;;;;;;;;;5094746;28;20264;-86
2022/09/12 07:07:11;;;;;;;;;;;;;;;;;;5095003;28;20416;-85
2022/09/12 07:09:37;;;;;;;;;;;;;;;;;;5115288;28;20276;-86
2022/09/12 07:12:03;;;;;;;;;;;;;;;;;;5117132;28;19930;-85
2022/09/12 07:14:29;;;;;;;;;;;;;;;;;;5122120;28;19923;-86
2022/09/12 07:16:54;;;;;;;;;;;;;;;;;;5126129;27;19924;-86
2022/09/12 07:19:20;;;;;;;;;;;;;;;;;;5118493;27;19941;-86
2022/09/12 07:21:45;;;;;;;;;;;;;;;;;;5136959;27;19962;-87
2022/09/12 07:24:10;;;;;;;;;;;;;;;;;;5118453;27;19915;-87
2022/09/12 07:26:37;;;;;;;;;;;;;;;;;;5136759;27;19922;-86
2022/09/12 07:29:02;;;;;;;;;;;;;;;;;;5136530;27;19916;-87
2022/09/12 07:31:28;;;;;;;;;;;;;;;;;;5136638;27;19920;-87
2022/09/12 07:33:53;;;;;;;;;;;;;;;;;;5135958;27;19922;-87
2022/09/12 07:36:21;;;;;;;;;;;;;;;;;;5136423;27;19915;-87
2022/09/12 07:38:46;;;;;;;;;;;;;;;;;;5136604;27;19916;-87
2022/09/12 07:41:13;;;;;;;;;;;;;;;;;;5136516;27;20421;-86
2022/09/12 07:43:38;;;;;;;;;;;;;;;;;;5136336;27;20072;-87
2022/09/12 07:46:05;;;;;;;;;;;;;;;;;;5136274;27;19915;-86
2022/09/12 07:48:30;;;;;;;;;;;;;;;;;;5118154;27;19926;-87
2022/09/12 07:50:59;;;;;;;;;;;;;;;;;;5118196;27;19998;-87
2022/09/12 07:53:35;;;;;;;;;;;;;;;;;;5136695;27;19922;-86
2022/09/12 07:56:01;;;;;;;;;;;;;;;;;;5136393;27;19926;-86
2022/09/12 07:58:28;;;;;;;;;;;;;;;;;;5136207;27;19926;-87
2022/09/12 08:00:53;;;;;;;;;;;;;;;;;;5130867;27;19919;-86
2022/09/12 08:03:19;;;;;;;;;;;;;;;;;;5130232;27;19925;-88
2022/09/12 08:05:44;;;;;;;;;;;;;;;;;;5127581;27;19919;-87
2022/09/12 08:08:10;;;;;;;;;;;;;;;;;;5124994;27;19927;-86
2022/09/12 08:10:35;;;;;;;;;;;;;;;;;;5127620;27;20374;-87
2022/09/12 08:13:02;;;;;;;;;;;;;;;;;;5111940;27;19968;-87
2022/09/12 08:15:28;;;;;;;;;;;;;;;;;;5114786;27;19963;-88
2022/09/12 08:17:54;;;;;;;;;;;;;;;;;;5128749;27;19995;-87
2022/09/12 08:20:20;;;;;;;;;;;;;;;;;;5128929;27;19923;-87
2022/09/12 08:22:45;;;;;;;;;;;;;;;;;;5112511;27;20402;-86
2022/09/12 08:25:10;;;;;;;;;;;;;;;;;;5124194;27;19919;-88
2022/09/12 08:27:36;;;;;;;;;;;;;;;;;;5126168;27;19915;-87
2022/09/12 08:30:02;;;;;;;;;;;;;;;;;;5135477;27;19912;-87
2022/09/12 08:32:33;;;;;;;;;;;;;;;;;;5139096;27;19919;-87
2022/09/12 08:34:58;;;;;;;;;;;;;;;;;;5143473;27;19919;-87
2022/09/12 08:37:24;;;;;;;;;;;;;;;;;;5138310;27;19915;-87
2022/09/12 08:39:52;;;;;;;;;;;;;;;;;;5124044;27;19920;-85
2022/09/12 08:42:25;;;;;;;;;;;;;;;;;;5136077;27;19926;-86
2022/09/12 08:45:29;;;;;;;;;;;;;;;;;;5144901;27;19927;-86
2022/09/12 08:47:55;;;;;;;;;;;;;;;;;;5018254;28;19936;-86
2022/09/12 08:50:24;;;;;;;;;;;;;;;;;;5018156;28;20382;-87
2022/09/12 08:52:53;;;;;;;;;;;;;;;;;;5076039;27;19920;-88
2022/09/12 08:55:27;;;;;;;;;;;;;;;;;;5141237;27;20005;-87
2022/09/12 08:57:53;;;;;;;;;;;;;;;;;;5141017;27;19920;-87
2022/09/12 09:00:19;;;;;;;;;;;;;;;;;;5117744;27;19999;-88
2022/09/12 09:02:53;;;;;;;;;;;;;;;;;;5139204;27;19928;-88
2022/09/12 09:05:23;;;;;;;;;;;;;;;;;;5137292;27;20009;-85
2022/09/12 09:07:49;;;;;;;;;;;;;;;;;;5137773;27;19930;-85
2022/09/12 09:10:34;;;;;;;;;;;;;;;;;;5141042;27;19923;-88
2022/09/12 09:14:46;;;;;;;;;;;;;;;;;;5140913;27;20006;-88
2022/09/12 09:16:10;;;;;;;;;;;;;;;;;;5139864;27;20018;-87
2022/09/12 09:18:35;;;;;;;;;;;;;;;;;;5135101;27;20083;-86
2022/09/12 09:21:05;;;;;;;;;;;;;;;;;;5132051;27;19919;-87
2022/09/12 09:23:40;;;;;;;;;;;;;;;;;;5135194;27;19926;-86
2022/09/12 09:26:15;;;;;;;;;;;;;;;;;;5120010;27;20300;-86
2022/09/12 09:28:46;;;;;;;;;;;;;;;;;;5116101;28;19920;-87
2022/09/12 09:31:15;;;;;;;;;;;;;;;;;;5102031;28;20030;-87
2022/09/12 09:33:46;;;;;;;;;;;;;;;;;;5129043;27;20054;-88
2022/09/12 09:36:26;;;;;;;;;;;;;;;;;;5095103;28;20424;-88
2022/09/12 09:38:58;;;;;;;;;;;;;;;;;;5112355;28;19943;-87
2022/09/12 09:41:39;;;;;;;;;;;;;;;;;;5113768;28;19916;-87
2022/09/12 09:44:05;;;;;;;;;;;;;;;;;;5113452;28;19964;-88
2022/09/12 09:46:31;;;;;;;;;;;;;;;;;;5113564;28;19920;-85
2022/09/12 09:48:58;;;;;;;;;;;;;;;;;;5078329;28;19924;-85
2022/09/12 09:51:26;;;;;;;;;;;;;;;;;;5113809;28;19919;-87
2022/09/12 09:54:13;;;;;;;;;;;;;;;;;;5113626;28;19934;-87
2022/09/12 09:56:41;;;;;;;;;;;;;;;;;;5095361;28;19919;-86
2022/09/12 09:59:10;;;;;;;;;;;;;;;;;;5113527;28;19916;-87
2022/09/12 10:01:37;;;;;;;;;;;;;;;;;;5110107;28;19942;-86
2022/09/12 10:04:03;;;;;;;;;;;;;;;;;;5134625;28;19926;-86
2022/09/12 10:06:31;;;;;;;;;;;;;;;;;;5134379;28;19915;-86
2022/09/12 10:09:04;;;;;;;;;;;;;;;;;;5134213;28;19919;-87
2022/09/12 10:11:31;;;;;;;;;;;;;;;;;;5134354;28;20023;-87
2022/09/12 10:13:58;;;;;;;;;;;;;;;;;;5134328;28;20010;-87
2022/09/12 10:16:31;;;;;;;;;;;;;;;;;;5134255;28;20409;-87
2022/09/12 10:18:58;;;;;;;;;;;;;;;;;;5134333;28;19919;-86
2022/09/12 10:21:36;;;;;;;;;;;;;;;;;;5132355;28;19915;-88
2022/09/12 10:24:02;;;;;;;;;;;;;;;;;;5132778;28;19915;-87
2022/09/12 10:26:31;;;;;;;;;;;;;;;;;;5131613;28;20002;-87
2022/09/12 10:28:57;;;;;;;;;;;;;;;;;;5114264;28;19919;-87
2022/09/12 10:31:27;;;;;;;;;;;;;;;;;;5132938;28;19923;-87
2022/09/12 10:33:54;;;;;;;;;;;;;;;;;;5132783;28;20014;-88
2022/09/12 10:36:20;;;;;;;;;;;;;;;;;;5133697;28;19911;-87
2022/09/12 10:38:50;;;;;;;;;;;;;;;;;;5133821;28;19922;-87
2022/09/12 10:41:34;;;;;;;;;;;;;;;;;;5133790;28;20037;-88
2022/09/12 10:44:16;;;;;;;;;;;;;;;;;;5114299;28;20302;-85
2022/09/12 10:46:42;;;;;;;;;;;;;;;;;;5116947;28;19920;-87
2022/09/12 10:49:12;;;;;;;;;;;;;;;;;;5100928;28;19937;-87
2022/09/12 10:51:42;;;;;;;;;;;;;;;;;;5119739;28;19971;-87
2022/09/12 10:54:09;;;;;;;;;;;;;;;;;;5095845;22;19924;-88
2022/09/12 10:56:37;;;;;;;;;;;;;;;;;;5076849;28;20391;-86
2022/09/12 10:59:30;;;;;;;;;;;;;;;;;;5075831;28;19973;-89
2022/09/12 11:02:13;;;;;;;;;;;;;;;;;;5076110;28;19963;-86
2022/09/12 11:04:49;;;;;;;;;;;;;;;;;;5076112;28;19917;-88
2022/09/12 11:07:28;;;;;;;;;;;;;;;;;;5075627;28;19938;-87
2022/09/12 11:10:12;;;;;;;;;;;;;;;;;;5074655;28;20497;-87
2022/09/12 11:12:40;;;;;;;;;;;;;;;;;;5075878;28;19970;-87
2022/09/12 11:15:12;;;;;;;;;;;;;;;;;;5050204;28;19925;-88
2022/09/12 11:17:54;;;;;;;;;;;;;;;;;;5055831;28;19916;-86
2022/09/12 11:20:31;;;;;;;;;;;;;;;;;;5074428;28;19969;-88
2022/09/12 11:23:20;;;;;;;;;;;;;;;;;;5075798;28;20395;-87
2022/09/12 11:26:07;;;;;;;;;;;;;;;;;;5029778;28;20728;-86
2022/09/12 11:28:53;;;;;;;;;;;;;;;;;;5075867;28;20431;-87
2022/09/12 11:31:37;;;;;;;;;;;;;;;;;;5059831;28;20280;-86
2022/09/12 11:34:08;;;;;;;;;;;;;;;;;;5057738;28;19916;-87
2022/09/12 11:36:39;;;;;;;;;;;;;;;;;;5075763;28;19997;-86
2022/09/12 11:39:29;;;;;;;;;;;;;;;;;;5075814;28;19916;-88
2022/09/12 11:41:56;;;;;;;;;;;;;;;;;;5075629;28;20390;-86
2022/09/12 11:44:28;;;;;;;;;;;;;;;;;;5075444;28;19928;-87
2022/09/12 11:46:53;;;;;;;;;;;;;;;;;;5074894;28;19917;-87
2022/09/12 11:49:28;;;;;;;;;;;;;;;;;;5075512;28;19935;-87
2022/09/12 11:51:56;;;;;;;;;;;;;;;;;;5075318;28;19916;-88
2022/09/12 11:54:26;;;;;;;;;;;;;;;;;;5074990;28;19924;-86
2022/09/12 11:56:57;;;;;;;;;;;;;;;;;;5075737;28;19928;-87
2022/09/12 11:59:32;;;;;;;;;;;;;;;;;;5075323;28;19971;-86
2022/09/12 12:01:58;;;;;;;;;;;;;;;;;;5078252;28;19970;-86
2022/09/12 12:04:28;;;;;;;;;;;;;;;;;;5081570;28;19985;-87
2022/09/12 12:07:07;;;;;;;;;;;;;;;;;;5057143;28;20296;-87
2022/09/12 12:09:33;;;;;;;;;;;;;;;;;;5075248;28;19916;-88
2022/09/12 12:12:01;;;;;;;;;;;;;;;;;;5074988;28;19937;-86
2022/09/12 12:14:30;;;;;;;;;;;;;;;;;;5075620;28;20011;-87
2022/09/12 12:16:56;;;;;;;;;;;;;;;;;;5057662;28;19917;-85
2022/09/12 12:19:29;;;;;;;;;;;;;;;;;;5070888;28;19944;-86
2022/09/12 12:21:54;;;;;;;;;;;;;;;;;;5070115;28;19955;-87
2022/09/12 12:24:24;;;;;;;;;;;;;;;;;;5075060;28;19966;-87
2022/09/12 12:26:51;;;;;;;;;;;;;;;;;;5057073;28;19916;-87
2022/09/12 12:29:16;;;;;;;;;;;;;;;;;;5074473;28;19924;-87
2022/09/12 12:34:27;;;;;;;;;;;;;;;;;;5064361;28;20426;-89
2022/09/12 12:36:52;;;;;;;;;;;;;;;;;;5065396;28;19927;-86
2022/09/12 12:39:33;;;;;;;;;;;;;;;;;;5067334;28;19925;-87
2022/09/12 12:42:01;;;;;;;;;;;;;;;;;;5058949;28;19920;-87
2022/09/12 12:44:47;;;;;;;;;;;;;;;;;;5055550;28;20387;-88
2022/09/12 12:47:15;;;;;;;;;;;;;;;;;;5074064;28;19924;-88
2022/09/12 12:49:41;;;;;;;;;;;;;;;;;;5056199;28;19917;-88
2022/09/12 12:52:15;;;;;;;;;;;;;;;;;;5073152;28;19931;-87
2022/09/12 12:54:41;;;;;;;;;;;;;;;;;;5073086;28;19963;-88
2022/09/12 12:57:12;;;;;;;;;;;;;;;;;;5072500;28;20017;-86
2022/09/12 12:59:44;;;;;;;;;;;;;;;;;;5060281;28;19916;-87
2022/09/12 13:02:21;;;;;;;;;;;;;;;;;;5059486;28;20381;-88
2022/09/12 13:04:48;;;;;;;;;;;;;;;;;;5037794;28;19923;-87
2022/09/12 13:07:21;;;;;;;;;;;;;;;;;;5053940;28;19931;-86
2022/09/12 13:09:48;;;;;;;;;;;;;;;;;;5071282;28;20014;-87
2022/09/12 13:12:18;;;;;;;;;;;;;;;;;;5075396;28;19931;-87
2022/09/12 13:14:58;;;;;;;;;;;;;;;;;;5071340;28;20015;-86
2022/09/12 13:17:39;;;;;;;;;;;;;;;;;;5065028;28;20384;-86
2022/09/12 13:20:25;;;;;;;;;;;;;;;;;;5065606;28;19928;-87
2022/09/12 13:22:51;;;;;;;;;;;;;;;;;;5065246;28;19962;-88
2022/09/12 13:25:24;;;;;;;;;;;;;;;;;;5073596;28;19968;-86
2022/09/12 13:27:58;;;;;;;;;;;;;;;;;;5071925;28;20012;-87
2022/09/12 13:30:23;;;;;;;;;;;;;;;;;;5056726;28;19928;-86
2022/09/12 13:32:49;;;;;;;;;;;;;;;;;;5060094;28;20393;-88
2022/09/12 13:35:47;;;;;;;;;;;;;;;;;;5075835;28;19923;-86
2022/09/12 13:38:25;;;;;;;;;;;;;;;;;;5026706;28;19924;-89
2022/09/12 13:40:58;;;;;;;;;;;;;;;;;;5068798;28;20380;-88
2022/09/12 13:43:45;;;;;;;;;;;;;;;;;;5069226;28;19989;-87
2022/09/12 13:46:13;;;;;;;;;;;;;;;;;;5067687;28;19924;-87
2022/09/12 13:48:39;;;;;;;;;;;;;;;;;;5056475;28;19928;-88
2022/09/12 13:51:05;;;;;;;;;;;;;;;;;;5073017;28;20356;-86
2022/09/12 13:53:35;;;;;;;;;;;;;;;;;;5059423;28;19939;-87
2022/09/12 13:56:02;;;;;;;;;;;;;;;;;;5052642;28;20384;-88
2022/09/12 13:58:29;;;;;;;;;;;;;;;;;;5072849;28;19960;-88
2022/09/12 14:01:03;;;;;;;;;;;;;;;;;;5072978;28;19917;-88
2022/09/12 14:06:17;;;;;;;;;;;;;;;;;;5068950;28;20052;-87
2022/09/12 14:08:44;;;;;;;;;;;;;;;;;;5067038;28;20012;-88
2022/09/12 14:11:10;;;;;;;;;;;;;;;;;;5047029;28;19924;-88
2022/09/12 14:13:37;;;;;;;;;;;;;;;;;;5066102;28;19920;-88
2022/09/12 14:16:04;;;;;;;;;;;;;;;;;;5061318;28;19920;-88
2022/09/12 14:18:33;;;;;;;;;;;;;;;;;;5046775;28;19916;-88
2022/09/12 14:21:07;;;;;;;;;;;;;;;;;;5049185;28;20372;-89
2022/09/12 14:23:35;;;;;;;;;;;;;;;;;;5051677;28;19924;-88
2022/09/12 14:26:02;;;;;;;;;;;;;;;;;;5067134;28;19927;-88
2022/09/12 14:28:30;;;;;;;;;;;;;;;;;;5067349;28;19946;-88
2022/09/12 14:31:00;;;;;;;;;;;;;;;;;;5066439;28;20331;-87
2022/09/12 14:33:25;;;;;;;;;;;;;;;;;;5067596;28;20379;-88
2022/09/12 14:36:05;;;;;;;;;;;;;;;;;;5055495;28;19943;-87
2022/09/12 14:38:34;;;;;;;;;;;;;;;;;;5060272;28;19924;-88
2022/09/12 14:41:04;;;;;;;;;;;;;;;;;;5071980;28;19969;-88
2022/09/12 14:43:31;;;;;;;;;;;;;;;;;;5073939;28;20011;-88
2022/09/12 14:46:01;;;;;;;;;;;;;;;;;;5073078;28;19999;-88
2022/09/12 14:48:29;;;;;;;;;;;;;;;;;;5063075;28;19921;-88
2022/09/12 14:50:54;;;;;;;;;;;;;;;;;;5056281;28;19951;-87
2022/09/12 14:53:22;;;;;;;;;;;;;;;;;;5070444;28;19979;-88
2022/09/12 14:55:52;;;;;;;;;;;;;;;;;;5037651;28;19917;-87
2022/09/12 14:58:17;;;;;;;;;;;;;;;;;;5054372;28;20000;-87
2022/09/12 15:00:57;;;;;;;;;;;;;;;;;;5049327;28;19964;-87
2022/09/12 15:03:33;;;;;;;;;;;;;;;;;;5060129;28;20003;-89
2022/09/12 15:05:59;;;;;;;;;;;;;;;;;;5064260;28;19928;-86
2022/09/12 15:08:24;;;;;;;;;;;;;;;;;;5056233;28;20341;-86
2022/09/12 15:10:50;;;;;;;;;;;;;;;;;;5065681;28;19980;-86
2022/09/12 15:13:17;;;;;;;;;;;;;;;;;;5061035;28;20047;-86
2022/09/12 15:15:53;;;;;;;;;;;;;;;;;;5073593;28;20298;-88
2022/09/12 15:18:20;;;;;;;;;;;;;;;;;;5060809;28;19917;-87
2022/09/12 15:20:46;;;;;;;;;;;;;;;;;;5153599;22;19924;-88
2022/09/12 15:23:22;;;;;;;;;;;;;;;;;;5113577;28;19931;-88
2022/09/12 15:25:47;;;;;;;;;;;;;;;;;;5116892;28;20018;-87
2022/09/12 15:28:17;;;;;;;;;;;;;;;;;;5115243;27;20428;-88
2022/09/12 15:30:43;;;;;;;;;;;;;;;;;;5116608;27;19920;-88
2022/09/12 15:33:10;;;;;;;;;;;;;;;;;;5115899;28;19923;-89
2022/09/12 15:35:36;;;;;;;;;;;;;;;;;;5114915;28;19912;-88
2022/09/12 15:38:01;;;;;;;;;;;;;;;;;;5114529;28;19920;-88
2022/09/12 15:42:56;;;;;;;;;;;;;;;;;;5073498;28;19924;-87
2022/09/12 15:45:23;;;;;;;;;;;;;;;;;;5073931;28;20326;-86
2022/09/12 15:47:49;;;;;;;;;;;;;;;;;;5068709;28;19932;-88
2022/09/12 15:50:14;;;;;;;;;;;;;;;;;;5074027;28;19927;-86
2022/09/12 15:52:40;;;;;;;;;;;;;;;;;;5072674;28;19990;-87
2022/09/12 15:55:11;;;;;;;;;;;;;;;;;;5076198;28;20014;-88
2022/09/12 15:57:36;;;;;;;;;;;;;;;;;;5067910;28;19928;-88
2022/09/12 16:00:04;;;;;;;;;;;;;;;;;;5075682;28;20411;-87
2022/09/12 16:02:29;;;;;;;;;;;;;;;;;;5076902;28;19924;-87
2022/09/12 16:04:55;;;;;;;;;;;;;;;;;;5059156;28;19916;-87
2022/09/12 16:07:20;;;;;;;;;;;;;;;;;;5072067;28;19920;-88
2022/09/12 16:09:45;;;;;;;;;;;;;;;;;;5076765;28;20300;-88
2022/09/12 16:12:11;;;;;;;;;;;;;;;;;;5077857;28;19920;-87
2022/09/12 16:14:36;;;;;;;;;;;;;;;;;;5076531;28;20016;-86
2022/09/12 16:17:02;;;;;;;;;;;;;;;;;;5073742;28;20387;-86
2022/09/12 16:19:27;;;;;;;;;;;;;;;;;;5075221;28;19920;-87
2022/09/12 16:21:53;;;;;;;;;;;;;;;;;;5076109;28;20344;-88
2022/09/12 16:24:18;;;;;;;;;;;;;;;;;;5074003;28;19930;-86
2022/09/12 16:26:44;;;;;;;;;;;;;;;;;;5076710;28;20152;-87
2022/09/12 16:29:10;;;;;;;;;;;;;;;;;;5074772;28;20372;-87
2022/09/12 16:31:38;;;;;;;;;;;;;;;;;;5072392;28;19921;-87
2022/09/12 16:34:03;;;;;;;;;;;;;;;;;;5088374;28;19924;-88
2022/09/12 16:36:28;;;;;;;;;;;;;;;;;;5059887;28;19956;-87
2022/09/12 16:38:54;;;;;;;;;;;;;;;;;;5054005;28;19924;-87
2022/09/12 16:41:21;;;;;;;;;;;;;;;;;;5076240;28;19921;-88
2022/09/12 16:43:50;;;;;;;;;;;;;;;;;;5076277;28;19927;-86
2022/09/12 16:46:20;;;;;;;;;;;;;;;;;;5072579;28;21455;-87
2022/09/12 16:48:47;;;;;;;;;;;;;;;;;;5058774;28;19943;-86
2022/09/12 16:51:13;;;;;;;;;;;;;;;;;;5056682;28;19921;-86
2022/09/12 16:53:39;;;;;;;;;;;;;;;;;;5072091;28;19920;-86
2022/09/12 16:56:05;;;;;;;;;;;;;;;;;;5075173;28;19921;-86
2022/09/12 16:58:31;;;;;;;;;;;;;;;;;;5062996;28;19921;-86
2022/09/12 17:01:02;;;;;;;;;;;;;;;;;;5068849;28;19935;-87
2022/09/12 17:03:27;;;;;;;;;;;;;;;;;;5073078;28;19955;-86
2022/09/12 17:06:00;;;;;;;;;;;;;;;;;;5077502;28;19916;-87
2022/09/12 17:08:26;;;;;;;;;;;;;;;;;;5079863;28;19952;-86